sensor_id;sensor_type;location;lat;lon;timestamp;P1;durP1;ratioP1;P2;durP2;ratioP2
64875;SDS011;51369;49.862;9.908;2024-01-15T00:01:07;56.28;;;18.70;;
64875;SDS011;51369;49.862;9.908;2024-01-15T00:03:32;62.08;;;19.05;;
64875;SDS011;51369;49.862;9.908;2024-01-15T00:05:58;58.20;;;18.17;;
64875;SDS011;51369;49.862;9.908;2024-01-15T00:08:23;59.15;;;17.80;;
64875;SDS011;51369;49.862;9.908;2024-01-15T00:10:49;46.65;;;15.98;;
64875;SDS011;51369;49.862;9.908;2024-01-15T00:13:15;48.03;;;16.33;;
64875;SDS011;51369;49.862;9.908;2024-01-15T00:15:41;51.50;;;16.75;;
64875;SDS011;51369;49.862;9.908;2024-01-15T00:18:06;56.03;;;18.75;;
64875;SDS011;51369;49.862;9.908;2024-01-15T00:20:31;56.95;;;18.00;;
64875;SDS011;51369;49.862;9.908;2024-01-15T00:22:57;60.25;;;16.38;;
64875;SDS011;51369;49.862;9.908;2024-01-15T00:25:22;57.10;;;16.92;;
64875;SDS011;51369;49.862;9.908;2024-01-15T00:27:47;56.92;;;16.52;;
64875;SDS011;51369;49.862;9.908;2024-01-15T00:30:13;59.08;;;17.70;;
64875;SDS011;51369;49.862;9.908;2024-01-15T00:32:38;55.35;;;17.45;;
64875;SDS011;51369;49.862;9.908;2024-01-15T00:35:04;54.03;;;17.42;;
64875;SDS011;51369;49.862;9.908;2024-01-15T00:37:29;55.90;;;14.85;;
64875;SDS011;51369;49.862;9.908;2024-01-15T00:39:55;49.95;;;17.02;;
64875;SDS011;51369;49.862;9.908;2024-01-15T00:42:20;60.55;;;18.00;;
64875;SDS011;51369;49.862;9.908;2024-01-15T00:44:45;49.67;;;15.27;;
64875;SDS011;51369;49.862;9.908;2024-01-15T00:47:11;59.22;;;18.02;;
64875;SDS011;51369;49.862;9.908;2024-01-15T00:49:36;58.60;;;17.77;;
64875;SDS011;51369;49.862;9.908;2024-01-15T00:52:02;60.15;;;17.73;;
64875;SDS011;51369;49.862;9.908;2024-01-15T00:54:27;48.60;;;16.00;;
64875;SDS011;51369;49.862;9.908;2024-01-15T00:56:52;48.15;;;16.33;;
64875;SDS011;51369;49.862;9.908;2024-01-15T00:59:18;48.45;;;16.52;;
64875;SDS011;51369;49.862;9.908;2024-01-15T01:01:45;60.75;;;16.80;;
64875;SDS011;51369;49.862;9.908;2024-01-15T01:04:11;53.63;;;16.42;;
64875;SDS011;51369;49.862;9.908;2024-01-15T01:06:38;49.80;;;16.63;;
64875;SDS011;51369;49.862;9.908;2024-01-15T01:09:03;49.08;;;17.10;;
64875;SDS011;51369;49.862;9.908;2024-01-15T01:11:30;50.10;;;17.17;;
64875;SDS011;51369;49.862;9.908;2024-01-15T01:13:56;50.13;;;16.42;;
64875;SDS011;51369;49.862;9.908;2024-01-15T01:16:22;50.00;;;15.90;;
64875;SDS011;51369;49.862;9.908;2024-01-15T01:18:47;59.65;;;19.33;;
64875;SDS011;51369;49.862;9.908;2024-01-15T01:21:13;50.53;;;16.40;;
64875;SDS011;51369;49.862;9.908;2024-01-15T01:23:38;43.60;;;16.05;;
64875;SDS011;51369;49.862;9.908;2024-01-15T01:26:03;42.30;;;15.38;;
64875;SDS011;51369;49.862;9.908;2024-01-15T01:28:29;49.05;;;16.00;;
64875;SDS011;51369;49.862;9.908;2024-01-15T01:30:54;59.58;;;17.83;;
64875;SDS011;51369;49.862;9.908;2024-01-15T01:33:20;49.10;;;16.17;;
64875;SDS011;51369;49.862;9.908;2024-01-15T01:35:45;51.05;;;17.05;;
64875;SDS011;51369;49.862;9.908;2024-01-15T01:38:12;60.80;;;16.85;;
64875;SDS011;51369;49.862;9.908;2024-01-15T01:40:37;51.90;;;16.75;;
64875;SDS011;51369;49.862;9.908;2024-01-15T01:43:04;52.10;;;15.95;;
64875;SDS011;51369;49.862;9.908;2024-01-15T01:45:30;49.75;;;16.63;;
64875;SDS011;51369;49.862;9.908;2024-01-15T01:47:55;57.40;;;17.75;;
64875;SDS011;51369;49.862;9.908;2024-01-15T01:50:20;54.53;;;16.20;;
64875;SDS011;51369;49.862;9.908;2024-01-15T01:52:46;49.13;;;17.23;;
64875;SDS011;51369;49.862;9.908;2024-01-15T01:55:12;48.33;;;14.90;;
64875;SDS011;51369;49.862;9.908;2024-01-15T01:57:38;49.78;;;15.00;;
64875;SDS011;51369;49.862;9.908;2024-01-15T02:00:03;55.58;;;16.75;;
64875;SDS011;51369;49.862;9.908;2024-01-15T02:02:37;54.83;;;17.58;;
64875;SDS011;51369;49.862;9.908;2024-01-15T02:05:03;48.25;;;17.17;;
64875;SDS011;51369;49.862;9.908;2024-01-15T02:07:29;44.65;;;16.25;;
64875;SDS011;51369;49.862;9.908;2024-01-15T02:09:55;45.13;;;15.75;;
64875;SDS011;51369;49.862;9.908;2024-01-15T02:12:21;43.88;;;14.68;;
64875;SDS011;51369;49.862;9.908;2024-01-15T02:14:47;44.65;;;13.93;;
64875;SDS011;51369;49.862;9.908;2024-01-15T02:17:12;47.88;;;15.48;;
64875;SDS011;51369;49.862;9.908;2024-01-15T02:19:37;46.60;;;15.70;;
64875;SDS011;51369;49.862;9.908;2024-01-15T02:22:04;52.08;;;17.30;;
64875;SDS011;51369;49.862;9.908;2024-01-15T02:24:30;41.92;;;15.52;;
64875;SDS011;51369;49.862;9.908;2024-01-15T02:26:55;46.38;;;15.02;;
64875;SDS011;51369;49.862;9.908;2024-01-15T02:29:21;42.97;;;14.77;;
64875;SDS011;51369;49.862;9.908;2024-01-15T02:31:46;36.25;;;14.43;;
64875;SDS011;51369;49.862;9.908;2024-01-15T02:34:11;48.92;;;15.63;;
64875;SDS011;51369;49.862;9.908;2024-01-15T02:36:37;43.40;;;15.07;;
64875;SDS011;51369;49.862;9.908;2024-01-15T02:39:02;34.10;;;13.18;;
64875;SDS011;51369;49.862;9.908;2024-01-15T02:41:28;46.08;;;14.82;;
64875;SDS011;51369;49.862;9.908;2024-01-15T02:43:53;49.03;;;15.20;;
64875;SDS011;51369;49.862;9.908;2024-01-15T02:46:19;43.85;;;14.45;;
64875;SDS011;51369;49.862;9.908;2024-01-15T02:48:44;40.67;;;15.15;;
64875;SDS011;51369;49.862;9.908;2024-01-15T02:51:09;39.45;;;13.45;;
64875;SDS011;51369;49.862;9.908;2024-01-15T02:53:35;39.20;;;13.55;;
64875;SDS011;51369;49.862;9.908;2024-01-15T02:56:01;34.33;;;13.32;;
64875;SDS011;51369;49.862;9.908;2024-01-15T02:58:26;39.55;;;13.43;;
64875;SDS011;51369;49.862;9.908;2024-01-15T03:00:52;40.60;;;14.75;;
64875;SDS011;51369;49.862;9.908;2024-01-15T03:03:17;49.22;;;14.38;;
64875;SDS011;51369;49.862;9.908;2024-01-15T03:05:42;37.85;;;13.20;;
64875;SDS011;51369;49.862;9.908;2024-01-15T03:08:08;39.55;;;12.88;;
64875;SDS011;51369;49.862;9.908;2024-01-15T03:10:33;40.58;;;13.77;;
64875;SDS011;51369;49.862;9.908;2024-01-15T03:12:58;38.35;;;14.88;;
64875;SDS011;51369;49.862;9.908;2024-01-15T03:15:24;39.20;;;13.20;;
64875;SDS011;51369;49.862;9.908;2024-01-15T03:17:49;40.35;;;12.93;;
64875;SDS011;51369;49.862;9.908;2024-01-15T03:20:14;36.05;;;13.18;;
64875;SDS011;51369;49.862;9.908;2024-01-15T03:22:40;37.38;;;12.75;;
64875;SDS011;51369;49.862;9.908;2024-01-15T03:25:05;33.80;;;13.07;;
64875;SDS011;51369;49.862;9.908;2024-01-15T03:27:31;34.35;;;12.55;;
64875;SDS011;51369;49.862;9.908;2024-01-15T03:29:56;40.78;;;13.32;;
64875;SDS011;51369;49.862;9.908;2024-01-15T03:32:22;34.97;;;13.07;;
64875;SDS011;51369;49.862;9.908;2024-01-15T03:34:47;34.15;;;11.93;;
64875;SDS011;51369;49.862;9.908;2024-01-15T03:37:13;28.20;;;11.70;;
64875;SDS011;51369;49.862;9.908;2024-01-15T03:39:38;31.35;;;12.48;;
64875;SDS011;51369;49.862;9.908;2024-01-15T03:42:04;39.92;;;12.48;;
64875;SDS011;51369;49.862;9.908;2024-01-15T03:44:29;30.33;;;12.35;;
64875;SDS011;51369;49.862;9.908;2024-01-15T03:46:55;36.25;;;12.43;;
64875;SDS011;51369;49.862;9.908;2024-01-15T03:49:20;29.30;;;12.15;;
64875;SDS011;51369;49.862;9.908;2024-01-15T03:51:45;33.58;;;13.27;;
64875;SDS011;51369;49.862;9.908;2024-01-15T03:54:11;31.33;;;11.45;;
64875;SDS011;51369;49.862;9.908;2024-01-15T03:56:37;30.75;;;11.98;;
64875;SDS011;51369;49.862;9.908;2024-01-15T03:59:02;29.67;;;12.50;;
64875;SDS011;51369;49.862;9.908;2024-01-15T04:01:28;33.92;;;12.82;;
64875;SDS011;51369;49.862;9.908;2024-01-15T04:03:53;34.03;;;13.23;;
64875;SDS011;51369;49.862;9.908;2024-01-15T04:06:19;32.88;;;12.02;;
64875;SDS011;51369;49.862;9.908;2024-01-15T04:08:44;33.17;;;13.30;;
64875;SDS011;51369;49.862;9.908;2024-01-15T04:11:09;30.17;;;11.20;;
64875;SDS011;51369;49.862;9.908;2024-01-15T04:13:35;32.78;;;12.23;;
64875;SDS011;51369;49.862;9.908;2024-01-15T04:16:01;32.38;;;11.65;;
64875;SDS011;51369;49.862;9.908;2024-01-15T04:18:26;30.90;;;11.52;;
64875;SDS011;51369;49.862;9.908;2024-01-15T04:20:51;35.38;;;11.75;;
64875;SDS011;51369;49.862;9.908;2024-01-15T04:23:17;33.50;;;12.38;;
64875;SDS011;51369;49.862;9.908;2024-01-15T04:25:43;38.17;;;12.30;;
64875;SDS011;51369;49.862;9.908;2024-01-15T04:28:09;32.22;;;11.82;;
64875;SDS011;51369;49.862;9.908;2024-01-15T04:30:34;37.53;;;12.60;;
64875;SDS011;51369;49.862;9.908;2024-01-15T04:33:00;34.75;;;11.02;;
64875;SDS011;51369;49.862;9.908;2024-01-15T04:35:25;36.42;;;12.40;;
64875;SDS011;51369;49.862;9.908;2024-01-15T04:37:51;35.58;;;12.88;;
64875;SDS011;51369;49.862;9.908;2024-01-15T04:40:18;34.20;;;11.45;;
64875;SDS011;51369;49.862;9.908;2024-01-15T04:42:43;37.70;;;12.88;;
64875;SDS011;51369;49.862;9.908;2024-01-15T04:45:10;31.23;;;12.07;;
64875;SDS011;51369;49.862;9.908;2024-01-15T04:47:36;30.85;;;11.93;;
64875;SDS011;51369;49.862;9.908;2024-01-15T04:50:02;33.47;;;11.75;;
64875;SDS011;51369;49.862;9.908;2024-01-15T04:52:28;31.73;;;11.98;;
64875;SDS011;51369;49.862;9.908;2024-01-15T04:54:54;35.72;;;12.57;;
64875;SDS011;51369;49.862;9.908;2024-01-15T04:57:19;33.47;;;11.52;;
64875;SDS011;51369;49.862;9.908;2024-01-15T04:59:44;36.15;;;12.73;;
64875;SDS011;51369;49.862;9.908;2024-01-15T05:02:10;33.35;;;12.18;;
64875;SDS011;51369;49.862;9.908;2024-01-15T05:04:37;35.60;;;12.23;;
64875;SDS011;51369;49.862;9.908;2024-01-15T05:07:02;31.58;;;12.15;;
64875;SDS011;51369;49.862;9.908;2024-01-15T05:09:28;33.80;;;12.75;;
64875;SDS011;51369;49.862;9.908;2024-01-15T05:11:53;30.10;;;11.75;;
64875;SDS011;51369;49.862;9.908;2024-01-15T05:14:19;36.17;;;12.48;;
64875;SDS011;51369;49.862;9.908;2024-01-15T05:16:47;32.97;;;11.65;;
64875;SDS011;51369;49.862;9.908;2024-01-15T05:19:14;33.67;;;12.25;;
64875;SDS011;51369;49.862;9.908;2024-01-15T05:21:40;37.05;;;13.60;;
64875;SDS011;51369;49.862;9.908;2024-01-15T05:24:05;32.88;;;12.60;;
64875;SDS011;51369;49.862;9.908;2024-01-15T05:26:31;31.33;;;11.38;;
64875;SDS011;51369;49.862;9.908;2024-01-15T05:28:56;32.20;;;13.38;;
64875;SDS011;51369;49.862;9.908;2024-01-15T05:31:22;36.90;;;12.57;;
64875;SDS011;51369;49.862;9.908;2024-01-15T05:33:48;30.65;;;11.98;;
64875;SDS011;51369;49.862;9.908;2024-01-15T05:36:13;34.60;;;12.70;;
64875;SDS011;51369;49.862;9.908;2024-01-15T05:38:38;35.50;;;12.52;;
64875;SDS011;51369;49.862;9.908;2024-01-15T05:41:04;30.75;;;12.30;;
64875;SDS011;51369;49.862;9.908;2024-01-15T05:43:30;32.38;;;11.23;;
64875;SDS011;51369;49.862;9.908;2024-01-15T05:45:55;33.20;;;12.13;;
64875;SDS011;51369;49.862;9.908;2024-01-15T05:48:21;32.17;;;12.30;;
64875;SDS011;51369;49.862;9.908;2024-01-15T05:50:46;35.65;;;12.85;;
64875;SDS011;51369;49.862;9.908;2024-01-15T05:53:12;35.08;;;13.10;;
64875;SDS011;51369;49.862;9.908;2024-01-15T05:55:37;36.95;;;13.90;;
64875;SDS011;51369;49.862;9.908;2024-01-15T05:58:03;34.42;;;13.95;;
64875;SDS011;51369;49.862;9.908;2024-01-15T06:00:29;34.85;;;13.00;;
64875;SDS011;51369;49.862;9.908;2024-01-15T06:02:54;34.35;;;13.18;;
64875;SDS011;51369;49.862;9.908;2024-01-15T06:05:19;39.72;;;13.80;;
64875;SDS011;51369;49.862;9.908;2024-01-15T06:07:45;40.92;;;13.77;;
64875;SDS011;51369;49.862;9.908;2024-01-15T06:10:10;38.05;;;13.30;;
64875;SDS011;51369;49.862;9.908;2024-01-15T06:12:36;35.50;;;13.20;;
64875;SDS011;51369;49.862;9.908;2024-01-15T06:15:01;32.88;;;13.80;;
64875;SDS011;51369;49.862;9.908;2024-01-15T06:17:27;38.42;;;13.40;;
64875;SDS011;51369;49.862;9.908;2024-01-15T06:19:52;39.78;;;13.93;;
64875;SDS011;51369;49.862;9.908;2024-01-15T06:22:18;39.42;;;14.40;;
64875;SDS011;51369;49.862;9.908;2024-01-15T06:24:43;37.13;;;14.32;;
64875;SDS011;51369;49.862;9.908;2024-01-15T06:27:08;32.92;;;13.10;;
64875;SDS011;51369;49.862;9.908;2024-01-15T06:29:36;35.90;;;13.65;;
64875;SDS011;51369;49.862;9.908;2024-01-15T06:32:02;43.65;;;13.75;;
64875;SDS011;51369;49.862;9.908;2024-01-15T06:34:28;37.90;;;14.73;;
64875;SDS011;51369;49.862;9.908;2024-01-15T06:36:53;37.70;;;12.63;;
64875;SDS011;51369;49.862;9.908;2024-01-15T06:39:19;39.72;;;13.60;;
64875;SDS011;51369;49.862;9.908;2024-01-15T06:41:44;38.15;;;13.88;;
64875;SDS011;51369;49.862;9.908;2024-01-15T06:44:10;36.03;;;13.13;;
64875;SDS011;51369;49.862;9.908;2024-01-15T06:46:36;32.17;;;12.50;;
64875;SDS011;51369;49.862;9.908;2024-01-15T06:49:01;38.70;;;13.85;;
64875;SDS011;51369;49.862;9.908;2024-01-15T06:51:27;39.78;;;14.35;;
64875;SDS011;51369;49.862;9.908;2024-01-15T06:53:54;41.13;;;13.00;;
64875;SDS011;51369;49.862;9.908;2024-01-15T06:56:20;39.08;;;13.13;;
64875;SDS011;51369;49.862;9.908;2024-01-15T06:58:45;38.22;;;14.07;;
64875;SDS011;51369;49.862;9.908;2024-01-15T07:01:11;37.53;;;13.93;;
64875;SDS011;51369;49.862;9.908;2024-01-15T07:03:36;41.25;;;14.60;;
64875;SDS011;51369;49.862;9.908;2024-01-15T07:06:03;38.67;;;14.02;;
64875;SDS011;51369;49.862;9.908;2024-01-15T07:08:28;35.50;;;14.40;;
64875;SDS011;51369;49.862;9.908;2024-01-15T07:10:54;42.50;;;13.27;;
64875;SDS011;51369;49.862;9.908;2024-01-15T07:13:19;44.42;;;14.30;;
64875;SDS011;51369;49.862;9.908;2024-01-15T07:15:44;44.20;;;14.27;;
64875;SDS011;51369;49.862;9.908;2024-01-15T07:18:10;39.28;;;15.00;;
64875;SDS011;51369;49.862;9.908;2024-01-15T07:20:35;41.13;;;14.23;;
64875;SDS011;51369;49.862;9.908;2024-01-15T07:23:00;38.47;;;14.35;;
64875;SDS011;51369;49.862;9.908;2024-01-15T07:25:26;36.75;;;13.48;;
64875;SDS011;51369;49.862;9.908;2024-01-15T07:27:51;41.38;;;14.38;;
64875;SDS011;51369;49.862;9.908;2024-01-15T07:30:18;40.28;;;14.50;;
64875;SDS011;51369;49.862;9.908;2024-01-15T07:32:44;42.65;;;15.50;;
64875;SDS011;51369;49.862;9.908;2024-01-15T07:35:09;41.08;;;15.35;;
64875;SDS011;51369;49.862;9.908;2024-01-15T07:37:35;41.50;;;13.77;;
64875;SDS011;51369;49.862;9.908;2024-01-15T07:40:00;37.70;;;13.88;;
64875;SDS011;51369;49.862;9.908;2024-01-15T07:42:26;34.42;;;12.75;;
64875;SDS011;51369;49.862;9.908;2024-01-15T07:44:51;34.90;;;12.93;;
64875;SDS011;51369;49.862;9.908;2024-01-15T07:47:17;42.75;;;14.20;;
64875;SDS011;51369;49.862;9.908;2024-01-15T07:49:42;35.65;;;13.55;;
64875;SDS011;51369;49.862;9.908;2024-01-15T07:52:07;37.42;;;14.15;;
64875;SDS011;51369;49.862;9.908;2024-01-15T07:54:33;33.45;;;12.95;;
64875;SDS011;51369;49.862;9.908;2024-01-15T07:56:59;39.95;;;13.88;;
64875;SDS011;51369;49.862;9.908;2024-01-15T07:59:26;35.92;;;13.75;;
64875;SDS011;51369;49.862;9.908;2024-01-15T08:01:52;38.00;;;13.68;;
64875;SDS011;51369;49.862;9.908;2024-01-15T08:04:18;34.10;;;12.68;;
64875;SDS011;51369;49.862;9.908;2024-01-15T08:06:44;37.65;;;13.10;;
64875;SDS011;51369;49.862;9.908;2024-01-15T08:09:10;33.80;;;12.95;;
64875;SDS011;51369;49.862;9.908;2024-01-15T08:11:36;37.33;;;13.05;;
64875;SDS011;51369;49.862;9.908;2024-01-15T08:14:04;35.10;;;11.75;;
64875;SDS011;51369;49.862;9.908;2024-01-15T08:16:29;37.67;;;13.10;;
64875;SDS011;51369;49.862;9.908;2024-01-15T08:18:54;29.60;;;11.43;;
64875;SDS011;51369;49.862;9.908;2024-01-15T08:21:20;35.15;;;11.43;;
64875;SDS011;51369;49.862;9.908;2024-01-15T08:23:46;31.63;;;12.13;;
64875;SDS011;51369;49.862;9.908;2024-01-15T08:26:11;26.70;;;11.50;;
64875;SDS011;51369;49.862;9.908;2024-01-15T08:28:36;28.45;;;11.13;;
64875;SDS011;51369;49.862;9.908;2024-01-15T08:31:02;27.90;;;10.93;;
64875;SDS011;51369;49.862;9.908;2024-01-15T08:33:28;26.73;;;10.85;;
64875;SDS011;51369;49.862;9.908;2024-01-15T08:35:54;32.47;;;11.40;;
64875;SDS011;51369;49.862;9.908;2024-01-15T08:38:19;30.27;;;10.30;;
64875;SDS011;51369;49.862;9.908;2024-01-15T08:40:45;27.27;;;10.55;;
64875;SDS011;51369;49.862;9.908;2024-01-15T08:43:11;30.33;;;12.02;;
64875;SDS011;51369;49.862;9.908;2024-01-15T08:45:36;30.80;;;10.90;;
64875;SDS011;51369;49.862;9.908;2024-01-15T08:48:01;27.60;;;10.70;;
64875;SDS011;51369;49.862;9.908;2024-01-15T08:50:27;33.20;;;10.88;;
64875;SDS011;51369;49.862;9.908;2024-01-15T08:52:52;27.30;;;10.32;;
64875;SDS011;51369;49.862;9.908;2024-01-15T08:55:18;29.77;;;10.73;;
64875;SDS011;51369;49.862;9.908;2024-01-15T08:57:43;29.38;;;11.05;;
64875;SDS011;51369;49.862;9.908;2024-01-15T09:00:08;26.45;;;10.77;;
64875;SDS011;51369;49.862;9.908;2024-01-15T09:02:35;28.85;;;10.02;;
64875;SDS011;51369;49.862;9.908;2024-01-15T09:05:01;32.10;;;11.80;;
64875;SDS011;51369;49.862;9.908;2024-01-15T09:07:26;27.42;;;10.70;;
64875;SDS011;51369;49.862;9.908;2024-01-15T09:09:52;27.60;;;10.43;;
64875;SDS011;51369;49.862;9.908;2024-01-15T09:12:18;26.85;;;11.20;;
64875;SDS011;51369;49.862;9.908;2024-01-15T09:14:45;31.15;;;10.93;;
64875;SDS011;51369;49.862;9.908;2024-01-15T09:17:11;29.90;;;10.70;;
64875;SDS011;51369;49.862;9.908;2024-01-15T09:19:36;27.90;;;10.50;;
64875;SDS011;51369;49.862;9.908;2024-01-15T09:22:02;30.63;;;11.65;;
64875;SDS011;51369;49.862;9.908;2024-01-15T09:24:27;25.52;;;10.95;;
64875;SDS011;51369;49.862;9.908;2024-01-15T09:26:52;25.52;;;10.98;;
64875;SDS011;51369;49.862;9.908;2024-01-15T09:29:18;30.98;;;11.05;;
64875;SDS011;51369;49.862;9.908;2024-01-15T09:31:43;27.30;;;10.95;;
64875;SDS011;51369;49.862;9.908;2024-01-15T09:34:08;27.60;;;10.82;;
64875;SDS011;51369;49.862;9.908;2024-01-15T09:36:41;29.60;;;12.00;;
64875;SDS011;51369;49.862;9.908;2024-01-15T09:39:09;29.55;;;11.35;;
64875;SDS011;51369;49.862;9.908;2024-01-15T09:41:36;26.60;;;11.23;;
64875;SDS011;51369;49.862;9.908;2024-01-15T09:44:02;27.83;;;11.88;;
64875;SDS011;51369;49.862;9.908;2024-01-15T09:46:28;23.42;;;9.93;;
64875;SDS011;51369;49.862;9.908;2024-01-15T09:48:56;26.05;;;10.38;;
64875;SDS011;51369;49.862;9.908;2024-01-15T09:51:21;31.00;;;11.10;;
64875;SDS011;51369;49.862;9.908;2024-01-15T09:53:46;29.60;;;11.10;;
64875;SDS011;51369;49.862;9.908;2024-01-15T09:56:13;27.67;;;10.65;;
64875;SDS011;51369;49.862;9.908;2024-01-15T09:58:39;28.08;;;10.52;;
64875;SDS011;51369;49.862;9.908;2024-01-15T10:01:06;27.50;;;11.05;;
64875;SDS011;51369;49.862;9.908;2024-01-15T10:03:33;28.65;;;11.43;;
64875;SDS011;51369;49.862;9.908;2024-01-15T10:05:59;30.38;;;12.18;;
64875;SDS011;51369;49.862;9.908;2024-01-15T10:08:25;30.13;;;11.15;;
64875;SDS011;51369;49.862;9.908;2024-01-15T10:10:50;26.13;;;11.27;;
64875;SDS011;51369;49.862;9.908;2024-01-15T10:13:15;32.20;;;11.43;;
64875;SDS011;51369;49.862;9.908;2024-01-15T10:15:41;24.88;;;10.05;;
64875;SDS011;51369;49.862;9.908;2024-01-15T10:18:12;29.65;;;10.52;;
64875;SDS011;51369;49.862;9.908;2024-01-15T10:20:37;30.33;;;11.45;;
64875;SDS011;51369;49.862;9.908;2024-01-15T10:23:04;25.92;;;10.70;;
64875;SDS011;51369;49.862;9.908;2024-01-15T10:25:30;26.08;;;10.85;;
64875;SDS011;51369;49.862;9.908;2024-01-15T10:28:02;25.17;;;10.63;;
64875;SDS011;51369;49.862;9.908;2024-01-15T10:30:29;29.23;;;11.45;;
64875;SDS011;51369;49.862;9.908;2024-01-15T10:32:57;24.30;;;10.80;;
64875;SDS011;51369;49.862;9.908;2024-01-15T10:35:27;28.55;;;10.70;;
64875;SDS011;51369;49.862;9.908;2024-01-15T10:37:53;26.70;;;10.57;;
64875;SDS011;51369;49.862;9.908;2024-01-15T10:40:18;26.35;;;10.52;;
64875;SDS011;51369;49.862;9.908;2024-01-15T10:42:44;29.17;;;11.65;;
64875;SDS011;51369;49.862;9.908;2024-01-15T10:45:09;29.77;;;10.70;;
64875;SDS011;51369;49.862;9.908;2024-01-15T10:47:34;25.25;;;10.52;;
64875;SDS011;51369;49.862;9.908;2024-01-15T10:50:01;27.88;;;10.68;;
64875;SDS011;51369;49.862;9.908;2024-01-15T10:52:27;21.85;;;10.40;;
64875;SDS011;51369;49.862;9.908;2024-01-15T10:54:54;23.67;;;10.73;;
64875;SDS011;51369;49.862;9.908;2024-01-15T10:57:20;23.90;;;9.90;;
64875;SDS011;51369;49.862;9.908;2024-01-15T10:59:47;24.08;;;10.40;;
64875;SDS011;51369;49.862;9.908;2024-01-15T11:02:12;20.70;;;9.85;;
64875;SDS011;51369;49.862;9.908;2024-01-15T11:04:39;22.52;;;9.88;;
64875;SDS011;51369;49.862;9.908;2024-01-15T11:07:05;22.60;;;9.57;;
64875;SDS011;51369;49.862;9.908;2024-01-15T11:09:31;23.05;;;9.88;;
64875;SDS011;51369;49.862;9.908;2024-01-15T11:12:07;21.67;;;9.88;;
64875;SDS011;51369;49.862;9.908;2024-01-15T11:14:40;20.40;;;10.02;;
64875;SDS011;51369;49.862;9.908;2024-01-15T11:17:09;24.17;;;10.45;;
64875;SDS011;51369;49.862;9.908;2024-01-15T11:19:36;21.67;;;10.35;;
64875;SDS011;51369;49.862;9.908;2024-01-15T11:22:03;22.98;;;10.75;;
64875;SDS011;51369;49.862;9.908;2024-01-15T11:24:35;20.05;;;9.60;;
64875;SDS011;51369;49.862;9.908;2024-01-15T11:27:01;24.63;;;10.32;;
64875;SDS011;51369;49.862;9.908;2024-01-15T11:32:00;21.73;;;10.15;;
64875;SDS011;51369;49.862;9.908;2024-01-15T11:37:23;24.67;;;9.45;;
64875;SDS011;51369;49.862;9.908;2024-01-15T11:39:50;20.65;;;9.77;;
64875;SDS011;51369;49.862;9.908;2024-01-15T11:42:17;21.30;;;9.35;;
64875;SDS011;51369;49.862;9.908;2024-01-15T11:44:44;21.20;;;10.90;;
64875;SDS011;51369;49.862;9.908;2024-01-15T11:47:11;23.80;;;10.18;;
64875;SDS011;51369;49.862;9.908;2024-01-15T11:52:31;19.60;;;9.00;;
64875;SDS011;51369;49.862;9.908;2024-01-15T11:55:06;22.15;;;9.88;;
64875;SDS011;51369;49.862;9.908;2024-01-15T12:00:04;20.75;;;10.00;;
64875;SDS011;51369;49.862;9.908;2024-01-15T12:02:38;22.45;;;9.90;;
64875;SDS011;51369;49.862;9.908;2024-01-15T12:05:05;21.40;;;9.38;;
64875;SDS011;51369;49.862;9.908;2024-01-15T12:07:30;20.50;;;9.98;;
64875;SDS011;51369;49.862;9.908;2024-01-15T12:09:56;19.27;;;9.55;;
64875;SDS011;51369;49.862;9.908;2024-01-15T12:12:24;24.35;;;9.95;;
64875;SDS011;51369;49.862;9.908;2024-01-15T12:14:59;22.77;;;9.15;;
64875;SDS011;51369;49.862;9.908;2024-01-15T12:17:24;18.23;;;8.68;;
64875;SDS011;51369;49.862;9.908;2024-01-15T12:19:50;19.40;;;9.20;;
64875;SDS011;51369;49.862;9.908;2024-01-15T12:22:15;17.00;;;8.93;;
64875;SDS011;51369;49.862;9.908;2024-01-15T12:24:41;19.23;;;9.02;;
64875;SDS011;51369;49.862;9.908;2024-01-15T12:27:06;21.55;;;9.32;;
64875;SDS011;51369;49.862;9.908;2024-01-15T12:29:33;19.55;;;10.13;;
64875;SDS011;51369;49.862;9.908;2024-01-15T12:31:58;16.88;;;8.60;;
64875;SDS011;51369;49.862;9.908;2024-01-15T12:34:23;21.48;;;8.93;;
64875;SDS011;51369;49.862;9.908;2024-01-15T12:36:49;21.00;;;9.25;;
64875;SDS011;51369;49.862;9.908;2024-01-15T12:39:14;18.52;;;9.70;;
64875;SDS011;51369;49.862;9.908;2024-01-15T12:41:40;22.65;;;8.60;;
64875;SDS011;51369;49.862;9.908;2024-01-15T12:44:06;17.50;;;8.57;;
64875;SDS011;51369;49.862;9.908;2024-01-15T12:46:32;16.92;;;8.73;;
64875;SDS011;51369;49.862;9.908;2024-01-15T12:48:57;19.23;;;9.13;;
64875;SDS011;51369;49.862;9.908;2024-01-15T12:51:25;18.80;;;9.13;;
64875;SDS011;51369;49.862;9.908;2024-01-15T12:53:51;17.73;;;8.82;;
64875;SDS011;51369;49.862;9.908;2024-01-15T12:56:17;17.48;;;9.32;;
64875;SDS011;51369;49.862;9.908;2024-01-15T12:58:42;18.65;;;8.45;;
64875;SDS011;51369;49.862;9.908;2024-01-15T13:01:08;15.63;;;8.35;;
64875;SDS011;51369;49.862;9.908;2024-01-15T13:03:33;15.13;;;7.93;;
64875;SDS011;51369;49.862;9.908;2024-01-15T13:05:58;15.57;;;7.65;;
64875;SDS011;51369;49.862;9.908;2024-01-15T13:08:24;17.20;;;8.35;;
64875;SDS011;51369;49.862;9.908;2024-01-15T13:10:51;16.40;;;8.25;;
64875;SDS011;51369;49.862;9.908;2024-01-15T13:13:21;18.25;;;7.65;;
64875;SDS011;51369;49.862;9.908;2024-01-15T13:15:46;17.27;;;8.20;;
64875;SDS011;51369;49.862;9.908;2024-01-15T13:18:11;13.82;;;7.60;;
64875;SDS011;51369;49.862;9.908;2024-01-15T13:20:37;14.57;;;7.97;;
64875;SDS011;51369;49.862;9.908;2024-01-15T13:23:03;14.40;;;7.55;;
64875;SDS011;51369;49.862;9.908;2024-01-15T13:25:29;14.23;;;7.30;;
64875;SDS011;51369;49.862;9.908;2024-01-15T13:27:54;13.27;;;7.22;;
64875;SDS011;51369;49.862;9.908;2024-01-15T13:30:20;15.63;;;7.28;;
64875;SDS011;51369;49.862;9.908;2024-01-15T13:32:45;15.55;;;7.05;;
64875;SDS011;51369;49.862;9.908;2024-01-15T13:35:11;14.52;;;7.35;;
64875;SDS011;51369;49.862;9.908;2024-01-15T13:37:38;13.05;;;7.20;;
64875;SDS011;51369;49.862;9.908;2024-01-15T13:40:06;13.95;;;7.30;;
64875;SDS011;51369;49.862;9.908;2024-01-15T13:42:34;14.68;;;7.88;;
64875;SDS011;51369;49.862;9.908;2024-01-15T13:44:59;12.77;;;6.90;;
64875;SDS011;51369;49.862;9.908;2024-01-15T13:47:24;13.20;;;7.57;;
64875;SDS011;51369;49.862;9.908;2024-01-15T13:49:50;13.43;;;7.43;;
64875;SDS011;51369;49.862;9.908;2024-01-15T13:52:15;11.20;;;7.07;;
64875;SDS011;51369;49.862;9.908;2024-01-15T13:54:40;15.30;;;7.45;;
64875;SDS011;51369;49.862;9.908;2024-01-15T13:57:06;14.30;;;7.43;;
64875;SDS011;51369;49.862;9.908;2024-01-15T13:59:32;16.85;;;8.23;;
64875;SDS011;51369;49.862;9.908;2024-01-15T14:01:57;14.68;;;7.25;;
64875;SDS011;51369;49.862;9.908;2024-01-15T14:04:23;15.68;;;7.72;;
64875;SDS011;51369;49.862;9.908;2024-01-15T14:06:48;12.00;;;6.78;;
64875;SDS011;51369;49.862;9.908;2024-01-15T14:09:14;15.77;;;7.88;;
64875;SDS011;51369;49.862;9.908;2024-01-15T14:11:39;18.73;;;7.28;;
64875;SDS011;51369;49.862;9.908;2024-01-15T14:14:05;13.50;;;6.60;;
64875;SDS011;51369;49.862;9.908;2024-01-15T14:16:33;12.80;;;7.22;;
64875;SDS011;51369;49.862;9.908;2024-01-15T14:18:58;16.73;;;8.25;;
64875;SDS011;51369;49.862;9.908;2024-01-15T14:21:24;13.13;;;7.13;;
64875;SDS011;51369;49.862;9.908;2024-01-15T14:23:49;17.60;;;8.05;;
64875;SDS011;51369;49.862;9.908;2024-01-15T14:26:14;16.90;;;7.90;;